createdAt,value
2022-07-31T04:05:38.647Z,22.00
2022-07-31T04:08:09.412Z,21.80
2022-07-31T04:10:39.448Z,21.80
2022-07-31T04:13:10.403Z,21.80
2022-07-31T04:15:39.852Z,21.80
2022-07-31T04:18:09.592Z,21.60
2022-07-31T04:20:40.823Z,21.40
2022-07-31T04:23:10.888Z,21.40
2022-07-31T04:26:00.407Z,21.20
2022-07-31T04:28:34.427Z,21.40
2022-07-31T04:31:04.298Z,21.50
2022-07-31T04:33:36.057Z,21.60
2022-07-31T04:36:07.326Z,21.40
2022-07-31T04:38:38.649Z,21.30
2022-07-31T04:41:08.174Z,21.20
2022-07-31T04:43:37.872Z,21.30
2022-07-31T04:46:17.186Z,21.20
2022-07-31T04:48:41.287Z,21.20
2022-07-31T04:51:13.566Z,21.30
2022-07-31T04:53:43.387Z,21.10
2022-07-31T04:56:31.080Z,21.20
2022-07-31T04:59:04.132Z,21.30
2022-07-31T05:01:35.066Z,21.00
2022-07-31T05:04:04.701Z,20.90
2022-07-31T05:06:37.291Z,20.90
2022-07-31T05:09:11.577Z,20.90
2022-07-31T05:11:40.728Z,21.20
2022-07-31T05:14:11.979Z,21.30
2022-07-31T05:16:42.256Z,21.40
2022-07-31T05:19:13.602Z,21.50
2022-07-31T05:22:02.601Z,21.50
2022-07-31T05:24:34.142Z,21.40
2022-07-31T05:27:06.100Z,21.40
2022-07-31T05:29:35.606Z,21.40
2022-07-31T05:32:05.205Z,21.30
2022-07-31T05:34:36.197Z,21.30
2022-07-31T05:37:06.141Z,21.30
2022-07-31T05:39:37.389Z,21.20
2022-07-31T05:42:25.292Z,21.10
2022-07-31T05:45:12.191Z,20.90
2022-07-31T05:47:42.262Z,21.00
2022-07-31T05:50:12.377Z,21.00
2022-07-31T05:52:43.376Z,21.00
2022-07-31T05:55:20.888Z,21.20
2022-07-31T05:57:57.915Z,21.20
2022-07-31T06:00:28.796Z,21.10
2022-07-31T06:03:00.097Z,21.30
2022-07-31T06:05:47.812Z,21.50
2022-07-31T06:08:18.208Z,21.50
2022-07-31T06:10:49.018Z,21.60
2022-07-31T06:13:19.606Z,21.60
2022-07-31T06:15:50.447Z,21.60
2022-07-31T06:18:20.146Z,21.60
2022-07-31T06:20:49.896Z,21.60
2022-07-31T06:23:22.633Z,21.70
2022-07-31T06:25:50.997Z,21.90
2022-07-31T06:28:21.308Z,21.90
2022-07-31T06:30:52.473Z,21.90
2022-07-31T06:33:37.082Z,21.90
2022-07-31T06:35:53.211Z,22.00
2022-07-31T06:38:36.405Z,22.20
2022-07-31T06:41:42.219Z,22.40
2022-07-31T06:44:30.246Z,22.60
2022-07-31T06:47:19.426Z,22.80
2022-07-31T06:49:56.635Z,23.30
2022-07-31T06:52:27.980Z,23.20
2022-07-31T06:54:57.715Z,23.60
2022-07-31T06:57:27.562Z,24.00
2022-07-31T06:59:57.446Z,24.20
2022-07-31T07:02:26.955Z,24.60
2022-07-31T07:05:06.201Z,25.00
2022-07-31T07:07:31.590Z,24.90
2022-07-31T07:09:59.761Z,25.10
2022-07-31T07:12:47.856Z,26.00
2022-07-31T07:15:17.708Z,26.30
2022-07-31T07:17:47.159Z,25.80
2022-07-31T07:20:18.571Z,26.20
2022-07-31T07:22:48.112Z,27.10
2022-07-31T07:25:20.754Z,26.80
2022-07-31T07:27:51.258Z,26.60
2022-07-31T07:30:20.909Z,26.70
2022-07-31T07:32:50.425Z,27.00
2022-07-31T07:35:20.001Z,27.00
2022-07-31T07:37:51.211Z,26.70
2022-07-31T07:40:23.187Z,27.30
2022-07-31T07:42:53.406Z,27.80
2022-07-31T07:45:23.493Z,27.70
2022-07-31T07:48:05.716Z,27.60
2022-07-31T07:50:26.873Z,27.80
2022-07-31T07:53:03.189Z,27.80
2022-07-31T07:55:43.622Z,28.20
2022-07-31T07:58:30.182Z,28.40
2022-07-31T08:01:10.469Z,29.00
2022-07-31T08:03:48.753Z,28.90
2022-07-31T08:06:13.227Z,29.00
2022-07-31T08:08:42.825Z,29.60
2022-07-31T08:11:17.564Z,29.60
2022-07-31T08:13:50.955Z,29.40
2022-07-31T08:16:36.949Z,29.50
2022-07-31T08:19:06.665Z,29.90
2022-07-31T08:21:37.774Z,29.80
2022-07-31T08:24:07.882Z,29.80
2022-07-31T08:26:55.810Z,30.30
2022-07-31T08:29:28.752Z,30.70
2022-07-31T08:32:00.246Z,31.00
2022-07-31T08:34:47.004Z,31.40
2022-07-31T08:37:52.676Z,31.60
2022-07-31T08:39:51.606Z,31.10
2022-07-31T08:42:21.591Z,31.20
2022-07-31T08:44:51.925Z,31.00
2022-07-31T08:47:25.375Z,31.40
2022-07-31T08:49:55.753Z,31.60
2022-07-31T08:52:28.486Z,31.80
2022-07-31T08:55:08.819Z,32.20
2022-07-31T08:57:38.505Z,32.40
2022-07-31T09:00:10.832Z,31.90
2022-07-31T09:02:41.578Z,32.00
2022-07-31T09:05:28.701Z,32.10
2022-07-31T09:08:00.060Z,32.30
2022-07-31T09:10:31.279Z,33.00
2022-07-31T09:13:00.799Z,32.70
2022-07-31T09:15:34.348Z,32.40
2022-07-31T09:18:07.183Z,32.60
2022-07-31T09:20:36.922Z,33.20
2022-07-31T09:23:09.997Z,33.00
2022-07-31T09:26:05.929Z,32.90
2022-07-31T09:28:38.000Z,32.50
2022-07-31T09:31:10.868Z,33.20
2022-07-31T09:33:46.171Z,33.40
2022-07-31T09:36:34.455Z,33.60
2022-07-31T09:39:08.675Z,33.10
2022-07-31T09:42:00.119Z,33.00
2022-07-31T09:44:47.633Z,32.50
2022-07-31T09:47:32.353Z,33.10
2022-07-31T09:50:05.874Z,33.90
2022-07-31T09:52:36.073Z,34.00
2022-07-31T09:55:17.053Z,34.00
2022-07-31T09:57:59.619Z,34.00
2022-07-31T10:00:31.272Z,34.50
2022-07-31T10:03:02.482Z,33.80
2022-07-31T10:05:32.730Z,34.30
2022-07-31T10:08:04.539Z,33.40
2022-07-31T10:10:36.858Z,34.30
2022-07-31T10:13:26.942Z,33.80
2022-07-31T10:16:01.598Z,33.80
2022-07-31T10:18:44.892Z,34.50
2022-07-31T10:21:25.198Z,34.40
2022-07-31T10:23:57.712Z,33.90
2022-07-31T10:26:50.654Z,34.80
2022-07-31T10:29:01.059Z,35.70
2022-07-31T10:31:31.913Z,35.60
2022-07-31T10:34:02.795Z,35.60
2022-07-31T10:36:53.652Z,35.10
2022-07-31T10:39:36.767Z,35.20
2022-07-31T10:42:33.361Z,35.60
2022-07-31T10:45:11.109Z,35.80
2022-07-31T10:48:01.719Z,35.80
2022-07-31T10:51:03.963Z,36.30
2022-07-31T10:53:51.593Z,35.90
2022-07-31T10:56:13.631Z,35.70
2022-07-31T10:58:58.939Z,34.70
2022-07-31T11:01:53.228Z,35.20
2022-07-31T11:04:39.836Z,35.80
2022-07-31T11:07:18.750Z,34.80
2022-07-31T11:09:51.353Z,34.30
2022-07-31T11:12:39.650Z,34.50
2022-07-31T11:15:25.487Z,35.40
2022-07-31T11:18:25.127Z,35.90
2022-07-31T11:21:13.578Z,36.00
2022-07-31T11:23:35.695Z,36.20
2022-07-31T11:26:07.495Z,36.10
2022-07-31T11:28:38.277Z,34.00
2022-07-31T11:31:10.173Z,34.40
2022-07-31T11:33:46.642Z,35.90
2022-07-31T11:36:19.414Z,36.60
2022-07-31T11:38:51.096Z,35.60
2022-07-31T11:41:25.726Z,34.20
2022-07-31T11:43:57.712Z,33.70
2022-07-31T11:46:29.980Z,35.70
2022-07-31T11:48:59.328Z,35.90
2022-07-31T11:51:31.139Z,36.30
2022-07-31T11:54:00.859Z,36.40
2022-07-31T11:56:30.634Z,36.90
2022-07-31T11:59:00.098Z,37.40
2022-07-31T12:01:30.738Z,37.30
2022-07-31T12:04:08.416Z,37.10
2022-07-31T12:06:34.839Z,36.90
2022-07-31T12:09:02.785Z,36.10
2022-07-31T12:11:32.968Z,35.10
2022-07-31T12:14:02.519Z,34.90
2022-07-31T12:16:40.886Z,35.00
2022-07-31T12:19:10.348Z,34.90
2022-07-31T12:21:40.938Z,35.70
2022-07-31T12:24:14.975Z,36.50
2022-07-31T12:26:46.972Z,37.20
2022-07-31T12:29:16.468Z,35.40
2022-07-31T12:31:54.546Z,34.10
2022-07-31T12:34:35.854Z,35.50
2022-07-31T12:37:08.630Z,36.80
2022-07-31T12:39:59.521Z,37.30
2022-07-31T12:42:37.564Z,37.50
2022-07-31T12:45:17.924Z,38.00
2022-07-31T12:47:38.080Z,35.90
2022-07-31T12:50:07.879Z,35.80
2022-07-31T12:52:37.625Z,34.00
2022-07-31T12:55:07.423Z,35.90
2022-07-31T12:57:36.858Z,36.70
2022-07-31T13:00:08.975Z,36.90
2022-07-31T13:02:41.680Z,35.30
2022-07-31T13:05:11.508Z,33.80
2022-07-31T13:07:41.152Z,35.00
2022-07-31T13:10:15.028Z,35.80
2022-07-31T13:12:42.576Z,36.00
2022-07-31T13:15:13.116Z,36.40
2022-07-31T13:17:47.861Z,36.30
2022-07-31T13:20:14.621Z,37.10
2022-07-31T13:22:45.259Z,37.50
2022-07-31T13:25:14.868Z,37.80
2022-07-31T13:27:45.002Z,37.90
2022-07-31T13:30:14.627Z,37.10
2022-07-31T13:32:44.203Z,36.50
2022-07-31T13:35:26.324Z,36.70
2022-07-31T13:37:46.760Z,36.80
2022-07-31T13:40:16.513Z,37.10
2022-07-31T13:42:46.529Z,36.60
2022-07-31T13:45:16.090Z,36.70
2022-07-31T13:47:50.854Z,37.20
2022-07-31T13:50:16.774Z,37.00
2022-07-31T13:52:46.303Z,37.40
2022-07-31T13:55:15.879Z,37.50
2022-07-31T13:57:45.306Z,37.30
2022-07-31T14:00:16.139Z,37.40
2022-07-31T14:02:46.616Z,38.00
2022-07-31T14:05:16.964Z,37.20
2022-07-31T14:07:51.604Z,37.10
2022-07-31T14:10:20.685Z,37.40
2022-07-31T14:12:50.434Z,36.00
2022-07-31T14:15:20.243Z,35.70
2022-07-31T14:17:49.791Z,35.90
2022-07-31T14:20:19.387Z,35.40
2022-07-31T14:22:49.048Z,34.90
2022-07-31T14:25:18.587Z,34.30
2022-07-31T14:27:49.457Z,34.70
2022-07-31T14:30:20.119Z,34.60
2022-07-31T14:32:50.096Z,34.10
2022-07-31T14:35:19.556Z,34.00
2022-07-31T14:37:49.206Z,34.00
2022-07-31T14:40:18.784Z,34.80
2022-07-31T14:42:48.493Z,35.10
2022-07-31T14:45:17.932Z,35.30
2022-07-31T14:47:47.817Z,36.00
2022-07-31T14:50:19.702Z,36.20
2022-07-31T14:52:49.288Z,36.00
2022-07-31T14:55:19.768Z,35.40
2022-07-31T14:57:49.563Z,35.50
2022-07-31T15:00:19.945Z,34.70
2022-07-31T15:02:49.689Z,34.80
2022-07-31T15:06:40.930Z,34.80
2022-07-31T15:07:50.540Z,35.40
2022-07-31T15:10:20.337Z,36.00
2022-07-31T15:12:49.795Z,36.20
2022-07-31T15:15:19.297Z,36.40
2022-07-31T15:17:48.920Z,36.20
2022-07-31T15:20:18.460Z,35.00
2022-07-31T15:22:47.919Z,34.60
2022-07-31T15:25:17.629Z,34.50
2022-07-31T15:27:47.139Z,34.60
2022-07-31T15:30:18.390Z,34.80
2022-07-31T15:32:48.602Z,35.10
2022-07-31T15:35:18.241Z,35.40
2022-07-31T15:37:49.604Z,35.80
2022-07-31T15:40:19.337Z,35.50
2022-07-31T15:42:50.037Z,35.80
2022-07-31T15:45:20.934Z,35.70
2022-07-31T15:47:50.568Z,35.50
2022-07-31T15:50:20.633Z,35.50
2022-07-31T15:52:50.645Z,35.20
2022-07-31T15:55:20.231Z,35.00
2022-07-31T15:57:50.987Z,35.20
2022-07-31T16:00:21.882Z,35.00
2022-07-31T16:02:52.285Z,34.80
2022-07-31T16:05:36.051Z,34.90
2022-07-31T16:08:32.082Z,35.20
2022-07-31T16:10:24.956Z,35.20
2022-07-31T16:12:54.648Z,35.30
2022-07-31T16:15:24.295Z,34.80
2022-07-31T16:17:55.634Z,34.30
2022-07-31T16:20:27.136Z,34.00
2022-07-31T16:23:01.453Z,34.10
2022-07-31T16:25:35.000Z,34.30
2022-07-31T16:28:05.266Z,34.00
2022-07-31T16:30:34.969Z,34.00
2022-07-31T16:33:04.483Z,33.90
2022-07-31T16:35:34.001Z,33.70
2022-07-31T16:38:03.492Z,33.80
2022-07-31T16:40:33.669Z,33.80
2022-07-31T16:43:51.067Z,34.10
2022-07-31T16:45:36.256Z,34.20
2022-07-31T16:48:06.431Z,34.30
2022-07-31T16:50:35.857Z,33.70
2022-07-31T16:53:05.388Z,33.90
2022-07-31T16:55:46.117Z,34.00
2022-07-31T16:58:08.527Z,34.00
2022-07-31T17:00:39.037Z,34.00
2022-07-31T17:03:59.039Z,34.10
2022-07-31T17:05:40.146Z,33.80
2022-07-31T17:08:09.859Z,33.30
2022-07-31T17:10:39.392Z,33.10
2022-07-31T17:13:08.823Z,33.10
2022-07-31T17:15:39.524Z,33.20
2022-07-31T17:18:09.201Z,33.00
2022-07-31T17:20:39.420Z,33.00
2022-07-31T17:23:10.967Z,33.20
2022-07-31T17:25:40.538Z,33.30
2022-07-31T17:28:15.037Z,33.20
2022-07-31T17:30:42.357Z,33.20
2022-07-31T17:33:13.990Z,33.10
2022-07-31T17:35:43.552Z,33.10
2022-07-31T17:38:12.997Z,33.00
2022-07-31T17:40:44.060Z,32.80
2022-07-31T17:43:14.818Z,32.60
2022-07-31T17:45:59.556Z,32.70
2022-07-31T17:48:19.305Z,32.40
2022-07-31T17:50:53.827Z,32.30
2022-07-31T17:53:20.186Z,32.40
2022-07-31T17:55:50.179Z,32.30
2022-07-31T17:58:20.745Z,32.40
2022-07-31T18:00:50.242Z,32.40
2022-07-31T18:03:19.921Z,32.50
2022-07-31T18:05:48.997Z,32.50
2022-07-31T18:08:17.703Z,32.30
2022-07-31T18:10:54.303Z,32.30
2022-07-31T18:13:16.539Z,32.20
2022-07-31T18:15:45.147Z,32.20
2022-07-31T18:18:14.712Z,32.10
2022-07-31T18:20:44.996Z,32.20
2022-07-31T18:23:14.340Z,32.00
2022-07-31T18:25:43.645Z,32.00
2022-07-31T18:28:12.214Z,31.90
2022-07-31T18:30:42.415Z,31.90
2022-07-31T18:33:12.597Z,31.80
2022-07-31T18:35:42.735Z,31.80
2022-07-31T18:38:11.670Z,31.70
2022-07-31T18:40:40.317Z,31.60
2022-07-31T18:43:09.170Z,31.60
2022-07-31T18:45:41.505Z,31.50
2022-07-31T18:48:08.141Z,31.40
2022-07-31T18:50:58.254Z,31.30
2022-07-31T18:53:07.117Z,31.40
2022-07-31T18:55:35.794Z,31.30
2022-07-31T18:58:05.041Z,31.30
2022-07-31T19:00:33.685Z,31.20
2022-07-31T19:03:04.426Z,31.10
2022-07-31T19:05:33.056Z,31.00
2022-07-31T19:08:01.774Z,31.00
2022-07-31T19:10:31.440Z,30.90
2022-07-31T19:13:01.041Z,30.90
2022-07-31T19:15:29.812Z,30.90
2022-07-31T19:17:58.596Z,30.80
2022-07-31T19:20:50.893Z,30.70
2022-07-31T19:22:59.202Z,30.70
2022-07-31T19:25:27.858Z,30.60
2022-07-31T19:27:56.498Z,30.60
2022-07-31T19:30:25.265Z,30.60
2022-07-31T19:32:54.582Z,30.50
2022-07-31T19:35:23.801Z,30.40
2022-07-31T19:37:59.134Z,30.40
2022-07-31T19:40:28.228Z,30.40
2022-07-31T19:42:59.914Z,30.30
2022-07-31T19:45:29.140Z,30.30
2022-07-31T19:47:57.759Z,30.20
2022-07-31T19:50:26.411Z,30.20
2022-07-31T19:52:54.996Z,30.20
2022-07-31T19:55:25.156Z,30.10
2022-07-31T19:57:53.815Z,30.00
2022-07-31T20:00:22.444Z,29.90
2022-07-31T20:02:53.652Z,29.80
2022-07-31T20:05:24.090Z,29.70
2022-07-31T20:07:52.808Z,29.70
2022-07-31T20:10:21.998Z,29.80
2022-07-31T20:12:50.600Z,29.70
2022-07-31T20:15:19.825Z,29.70
2022-07-31T20:17:48.538Z,29.60
2022-07-31T20:20:17.193Z,29.60
2022-07-31T20:22:45.926Z,29.50
2022-07-31T20:25:20.046Z,29.50
2022-07-31T20:27:45.503Z,29.40
2022-07-31T20:30:15.864Z,29.20
2022-07-31T20:32:48.715Z,29.30
2022-07-31T20:35:47.189Z,29.30
2022-07-31T20:37:45.138Z,29.30
2022-07-31T20:40:14.297Z,29.20
2022-07-31T20:42:43.020Z,29.10
2022-07-31T20:45:12.348Z,29.00
2022-07-31T20:47:41.187Z,29.00
2022-07-31T20:50:13.713Z,28.90
2022-07-31T20:52:48.143Z,28.90
2022-07-31T20:55:13.615Z,28.80
2022-07-31T20:57:42.422Z,28.70
2022-07-31T21:00:12.752Z,28.80
2022-07-31T21:02:41.548Z,28.80
2022-07-31T21:05:10.270Z,28.90
2022-07-31T21:07:38.924Z,28.80
2022-07-31T21:10:08.067Z,28.70
2022-07-31T21:12:36.731Z,28.70
2022-07-31T21:15:07.585Z,28.60
2022-07-31T21:17:37.816Z,28.60
2022-07-31T21:20:08.676Z,28.60
2022-07-31T21:22:37.393Z,28.60
2022-07-31T21:25:06.392Z,28.40
2022-07-31T21:27:37.449Z,28.40
2022-07-31T21:30:06.849Z,28.40
2022-07-31T21:32:35.638Z,28.50
2022-07-31T21:35:05.222Z,28.40
2022-07-31T21:37:39.175Z,28.10
2022-07-31T21:40:05.509Z,27.70
2022-07-31T21:42:35.648Z,27.60
2022-07-31T21:45:07.171Z,27.60
2022-07-31T21:47:52.417Z,27.60
2022-07-31T21:50:08.074Z,27.40
2022-07-31T21:52:37.121Z,27.40
2022-07-31T21:55:06.064Z,27.40
2022-07-31T21:57:57.249Z,27.40
2022-07-31T22:00:10.550Z,27.30
2022-07-31T22:02:38.157Z,27.40
2022-07-31T22:05:24.680Z,27.20
2022-07-31T22:07:53.274Z,27.20
2022-07-31T22:10:21.896Z,27.10
2022-07-31T22:12:50.622Z,27.00
2022-07-31T22:15:19.321Z,27.10
2022-07-31T22:17:48.925Z,27.00
2022-07-31T22:20:22.717Z,27.10
2022-07-31T22:22:51.954Z,27.20
2022-07-31T22:25:20.601Z,27.10
2022-07-31T22:27:58.556Z,27.30
2022-07-31T22:30:28.530Z,27.40
2022-07-31T22:33:01.626Z,27.40
2022-07-31T22:35:30.303Z,27.40
2022-07-31T22:37:58.955Z,27.40
2022-07-31T22:40:27.607Z,27.10
2022-07-31T22:42:58.345Z,27.10
2022-07-31T22:45:26.689Z,27.00
2022-07-31T22:47:55.712Z,26.90
2022-07-31T22:50:24.561Z,26.90
2022-07-31T22:52:53.252Z,26.80
2022-07-31T22:55:21.905Z,26.70
2022-07-31T22:57:50.519Z,26.60
2022-07-31T23:00:19.127Z,26.50
2022-07-31T23:02:48.292Z,26.30
2022-07-31T23:05:17.046Z,26.20
2022-07-31T23:07:45.618Z,26.30
2022-07-31T23:10:14.322Z,26.20
2022-07-31T23:12:42.962Z,26.40
2022-07-31T23:15:11.626Z,26.50
2022-07-31T23:17:40.386Z,26.40
2022-07-31T23:20:09.463Z,26.20
2022-07-31T23:22:38.025Z,26.30
2022-07-31T23:25:07.012Z,26.20
2022-07-31T23:27:36.091Z,26.40
2022-07-31T23:30:04.828Z,26.30
2022-07-31T23:32:33.405Z,26.40
2022-07-31T23:35:02.020Z,26.30
2022-07-31T23:37:30.673Z,26.20
2022-07-31T23:39:59.255Z,26.10
2022-07-31T23:42:39.730Z,26.00
2022-07-31T23:45:11.332Z,26.00
2022-07-31T23:47:46.163Z,26.10
2022-07-31T23:50:11.243Z,26.00
2022-07-31T23:52:39.816Z,25.90
2022-07-31T23:55:08.706Z,25.80
2022-07-31T23:57:37.453Z,25.70
